sensor_id;sensor_type;location;lat;lon;timestamp;temperature;humidity
10873;DHT22;34586;53.616;10.032;2023-01-09T00:00:13;6.00;99.90
10873;DHT22;34586;53.616;10.032;2023-01-09T00:02:40;6.00;99.90
10873;DHT22;34586;53.616;10.032;2023-01-09T00:05:07;6.00;99.90
10873;DHT22;34586;53.616;10.032;2023-01-09T00:07:33;5.90;99.90
10873;DHT22;34586;53.616;10.032;2023-01-09T00:09:58;5.90;99.90
10873;DHT22;34586;53.616;10.032;2023-01-09T00:12:24;5.90;99.90
10873;DHT22;34586;53.616;10.032;2023-01-09T00:14:49;5.90;99.90
10873;DHT22;34586;53.616;10.032;2023-01-09T00:17:15;5.90;99.90
10873;DHT22;34586;53.616;10.032;2023-01-09T00:19:41;5.90;99.90
10873;DHT22;34586;53.616;10.032;2023-01-09T00:22:06;5.90;99.90
10873;DHT22;34586;53.616;10.032;2023-01-09T00:24:34;5.90;99.90
10873;DHT22;34586;53.616;10.032;2023-01-09T00:27:00;5.90;99.90
10873;DHT22;34586;53.616;10.032;2023-01-09T00:29:26;5.90;99.90
10873;DHT22;34586;53.616;10.032;2023-01-09T00:31:51;5.90;99.90
10873;DHT22;34586;53.616;10.032;2023-01-09T00:34:17;5.90;99.90
10873;DHT22;34586;53.616;10.032;2023-01-09T00:36:43;5.90;99.90
10873;DHT22;34586;53.616;10.032;2023-01-09T00:39:08;5.90;99.90
10873;DHT22;34586;53.616;10.032;2023-01-09T00:41:43;6.10;99.90
10873;DHT22;34586;53.616;10.032;2023-01-09T00:44:13;5.90;99.90
10873;DHT22;34586;53.616;10.032;2023-01-09T00:46:44;5.90;99.90
10873;DHT22;34586;53.616;10.032;2023-01-09T00:49:10;6.00;99.90
10873;DHT22;34586;53.616;10.032;2023-01-09T00:51:38;6.00;99.90
10873;DHT22;34586;53.616;10.032;2023-01-09T00:54:05;6.00;99.90
10873;DHT22;34586;53.616;10.032;2023-01-09T00:56:32;6.10;99.90
10873;DHT22;34586;53.616;10.032;2023-01-09T00:58:59;6.10;99.90
10873;DHT22;34586;53.616;10.032;2023-01-09T01:01:24;6.10;99.90
10873;DHT22;34586;53.616;10.032;2023-01-09T01:03:50;6.20;99.90
10873;DHT22;34586;53.616;10.032;2023-01-09T01:06:15;6.20;99.90
10873;DHT22;34586;53.616;10.032;2023-01-09T01:08:59;6.20;99.90
10873;DHT22;34586;53.616;10.032;2023-01-09T01:11:25;6.10;99.90
10873;DHT22;34586;53.616;10.032;2023-01-09T01:13:51;6.10;99.90
10873;DHT22;34586;53.616;10.032;2023-01-09T01:16:17;6.10;99.90
10873;DHT22;34586;53.616;10.032;2023-01-09T01:18:43;6.10;99.90
10873;DHT22;34586;53.616;10.032;2023-01-09T01:21:11;6.10;99.90
10873;DHT22;34586;53.616;10.032;2023-01-09T01:23:37;6.10;99.90
10873;DHT22;34586;53.616;10.032;2023-01-09T01:26:12;6.10;99.90
10873;DHT22;34586;53.616;10.032;2023-01-09T01:28:38;6.10;99.90
10873;DHT22;34586;53.616;10.032;2023-01-09T01:31:04;6.00;99.90
10873;DHT22;34586;53.616;10.032;2023-01-09T01:33:30;6.10;99.90
10873;DHT22;34586;53.616;10.032;2023-01-09T01:36:07;6.10;99.90
10873;DHT22;34586;53.616;10.032;2023-01-09T01:38:33;6.10;99.90
10873;DHT22;34586;53.616;10.032;2023-01-09T01:40:59;6.10;99.90
10873;DHT22;34586;53.616;10.032;2023-01-09T01:43:27;6.00;99.90
10873;DHT22;34586;53.616;10.032;2023-01-09T01:45:53;6.30;99.90
10873;DHT22;34586;53.616;10.032;2023-01-09T01:48:28;6.10;99.90
10873;DHT22;34586;53.616;10.032;2023-01-09T01:50:55;6.10;99.90
10873;DHT22;34586;53.616;10.032;2023-01-09T01:56:16;6.10;99.90
10873;DHT22;34586;53.616;10.032;2023-01-09T01:58:54;6.00;99.90
10873;DHT22;34586;53.616;10.032;2023-01-09T02:01:22;6.10;99.90
10873;DHT22;34586;53.616;10.032;2023-01-09T02:03:49;6.10;99.90
10873;DHT22;34586;53.616;10.032;2023-01-09T02:06:15;6.20;99.90
10873;DHT22;34586;53.616;10.032;2023-01-09T02:08:41;6.30;99.90
10873;DHT22;34586;53.616;10.032;2023-01-09T02:11:08;6.30;99.90
10873;DHT22;34586;53.616;10.032;2023-01-09T02:13:35;6.30;99.90
10873;DHT22;34586;53.616;10.032;2023-01-09T02:30:24;6.60;99.90
10873;DHT22;34586;53.616;10.032;2023-01-09T02:35:59;6.70;99.90
10873;DHT22;34586;53.616;10.032;2023-01-09T02:43:34;7.00;99.90
10873;DHT22;34586;53.616;10.032;2023-01-09T02:46:00;6.80;99.90
10873;DHT22;34586;53.616;10.032;2023-01-09T02:48:25;6.90;99.90
10873;DHT22;34586;53.616;10.032;2023-01-09T02:51:05;6.90;99.90
10873;DHT22;34586;53.616;10.032;2023-01-09T02:53:57;6.90;99.90
10873;DHT22;34586;53.616;10.032;2023-01-09T02:56:46;6.90;99.90
10873;DHT22;34586;53.616;10.032;2023-01-09T03:04:42;7.00;99.90
10873;DHT22;34586;53.616;10.032;2023-01-09T03:07:35;7.00;99.90
10873;DHT22;34586;53.616;10.032;2023-01-09T03:12:48;7.10;99.90
10873;DHT22;34586;53.616;10.032;2023-01-09T03:15:17;7.10;99.90
10873;DHT22;34586;53.616;10.032;2023-01-09T03:17:46;7.10;99.90
10873;DHT22;34586;53.616;10.032;2023-01-09T03:20:16;7.10;99.90
10873;DHT22;34586;53.616;10.032;2023-01-09T03:22:58;7.20;99.90
10873;DHT22;34586;53.616;10.032;2023-01-09T03:25:25;7.20;99.90
10873;DHT22;34586;53.616;10.032;2023-01-09T03:27:58;7.20;99.90
10873;DHT22;34586;53.616;10.032;2023-01-09T03:30:25;7.20;99.90
10873;DHT22;34586;53.616;10.032;2023-01-09T03:32:52;7.30;99.90
10873;DHT22;34586;53.616;10.032;2023-01-09T03:35:17;7.30;99.90
10873;DHT22;34586;53.616;10.032;2023-01-09T03:37:43;7.30;99.90
10873;DHT22;34586;53.616;10.032;2023-01-09T03:40:09;7.30;99.90
10873;DHT22;34586;53.616;10.032;2023-01-09T03:42:35;7.40;99.90
10873;DHT22;34586;53.616;10.032;2023-01-09T03:45:00;7.40;99.90
10873;DHT22;34586;53.616;10.032;2023-01-09T03:47:26;7.40;99.90
10873;DHT22;34586;53.616;10.032;2023-01-09T03:49:52;7.40;99.90
10873;DHT22;34586;53.616;10.032;2023-01-09T03:52:17;7.40;99.90
10873;DHT22;34586;53.616;10.032;2023-01-09T03:54:43;7.50;99.90
10873;DHT22;34586;53.616;10.032;2023-01-09T03:57:08;7.50;99.90
10873;DHT22;34586;53.616;10.032;2023-01-09T03:59:34;7.50;99.90
10873;DHT22;34586;53.616;10.032;2023-01-09T04:02:00;7.50;99.90
10873;DHT22;34586;53.616;10.032;2023-01-09T04:04:25;7.50;99.90
10873;DHT22;34586;53.616;10.032;2023-01-09T04:06:51;7.50;99.90
10873;DHT22;34586;53.616;10.032;2023-01-09T04:09:16;7.50;99.90
10873;DHT22;34586;53.616;10.032;2023-01-09T04:11:42;7.50;99.90
10873;DHT22;34586;53.616;10.032;2023-01-09T04:14:08;7.50;99.90
10873;DHT22;34586;53.616;10.032;2023-01-09T04:16:33;7.50;99.90
10873;DHT22;34586;53.616;10.032;2023-01-09T04:18:59;7.50;99.90
10873;DHT22;34586;53.616;10.032;2023-01-09T04:21:24;7.70;99.90
10873;DHT22;34586;53.616;10.032;2023-01-09T04:23:50;7.50;99.90
10873;DHT22;34586;53.616;10.032;2023-01-09T04:26:16;7.50;99.90
10873;DHT22;34586;53.616;10.032;2023-01-09T04:28:41;7.60;99.90
10873;DHT22;34586;53.616;10.032;2023-01-09T04:31:07;7.50;99.90
10873;DHT22;34586;53.616;10.032;2023-01-09T04:33:33;7.50;99.90
10873;DHT22;34586;53.616;10.032;2023-01-09T04:35:59;7.50;99.90
10873;DHT22;34586;53.616;10.032;2023-01-09T04:38:25;7.50;99.90
10873;DHT22;34586;53.616;10.032;2023-01-09T04:40:51;7.60;99.90
10873;DHT22;34586;53.616;10.032;2023-01-09T04:43:17;7.50;99.90
10873;DHT22;34586;53.616;10.032;2023-01-09T04:45:43;7.50;99.90
10873;DHT22;34586;53.616;10.032;2023-01-09T04:48:08;7.50;99.90
10873;DHT22;34586;53.616;10.032;2023-01-09T04:50:34;7.60;99.90
10873;DHT22;34586;53.616;10.032;2023-01-09T04:53:00;7.50;99.90
10873;DHT22;34586;53.616;10.032;2023-01-09T04:55:25;7.50;99.90
10873;DHT22;34586;53.616;10.032;2023-01-09T04:57:51;7.70;99.90
10873;DHT22;34586;53.616;10.032;2023-01-09T05:00:16;7.60;99.90
10873;DHT22;34586;53.616;10.032;2023-01-09T05:02:42;7.50;99.90
10873;DHT22;34586;53.616;10.032;2023-01-09T05:05:08;7.50;99.90
10873;DHT22;34586;53.616;10.032;2023-01-09T05:07:34;7.50;99.90
10873;DHT22;34586;53.616;10.032;2023-01-09T05:10:00;7.50;99.90
10873;DHT22;34586;53.616;10.032;2023-01-09T05:12:26;7.50;99.90
10873;DHT22;34586;53.616;10.032;2023-01-09T05:14:52;7.50;99.90
10873;DHT22;34586;53.616;10.032;2023-01-09T05:17:17;7.50;99.90
10873;DHT22;34586;53.616;10.032;2023-01-09T05:19:43;7.50;99.90
10873;DHT22;34586;53.616;10.032;2023-01-09T05:22:10;7.50;99.90
10873;DHT22;34586;53.616;10.032;2023-01-09T05:24:36;7.50;99.90
10873;DHT22;34586;53.616;10.032;2023-01-09T05:27:02;7.50;99.90
10873;DHT22;34586;53.616;10.032;2023-01-09T05:29:27;7.50;99.90
10873;DHT22;34586;53.616;10.032;2023-01-09T05:31:53;7.50;99.90
10873;DHT22;34586;53.616;10.032;2023-01-09T05:34:19;7.70;99.90
10873;DHT22;34586;53.616;10.032;2023-01-09T05:36:45;7.50;99.90
10873;DHT22;34586;53.616;10.032;2023-01-09T05:39:10;7.60;99.90
10873;DHT22;34586;53.616;10.032;2023-01-09T05:41:36;7.60;99.90
10873;DHT22;34586;53.616;10.032;2023-01-09T05:44:02;7.60;99.90
10873;DHT22;34586;53.616;10.032;2023-01-09T05:46:29;7.60;99.90
10873;DHT22;34586;53.616;10.032;2023-01-09T05:48:55;7.60;99.90
10873;DHT22;34586;53.616;10.032;2023-01-09T05:51:20;7.60;99.90
10873;DHT22;34586;53.616;10.032;2023-01-09T05:53:46;7.60;99.90
10873;DHT22;34586;53.616;10.032;2023-01-09T05:56:12;7.60;99.90
10873;DHT22;34586;53.616;10.032;2023-01-09T05:58:37;8.40;99.90
10873;DHT22;34586;53.616;10.032;2023-01-09T06:01:03;7.70;99.90
10873;DHT22;34586;53.616;10.032;2023-01-09T06:03:29;7.70;99.90
10873;DHT22;34586;53.616;10.032;2023-01-09T06:05:54;7.70;99.90
10873;DHT22;34586;53.616;10.032;2023-01-09T06:08:20;7.70;99.90
10873;DHT22;34586;53.616;10.032;2023-01-09T06:10:46;7.70;99.90
10873;DHT22;34586;53.616;10.032;2023-01-09T06:13:12;7.60;99.90
10873;DHT22;34586;53.616;10.032;2023-01-09T06:15:38;7.60;99.90
10873;DHT22;34586;53.616;10.032;2023-01-09T06:18:04;7.80;99.90
10873;DHT22;34586;53.616;10.032;2023-01-09T06:20:30;7.50;99.90
10873;DHT22;34586;53.616;10.032;2023-01-09T06:22:55;7.50;99.90
10873;DHT22;34586;53.616;10.032;2023-01-09T06:25:21;7.50;99.90
10873;DHT22;34586;53.616;10.032;2023-01-09T06:27:47;7.50;99.90
10873;DHT22;34586;53.616;10.032;2023-01-09T06:30:14;7.50;99.90
10873;DHT22;34586;53.616;10.032;2023-01-09T06:32:39;7.60;99.90
10873;DHT22;34586;53.616;10.032;2023-01-09T06:35:05;7.60;99.90
10873;DHT22;34586;53.616;10.032;2023-01-09T06:37:31;7.60;99.90
10873;DHT22;34586;53.616;10.032;2023-01-09T06:39:57;7.60;99.90
10873;DHT22;34586;53.616;10.032;2023-01-09T06:42:23;7.70;99.90
10873;DHT22;34586;53.616;10.032;2023-01-09T06:44:49;7.60;99.90
10873;DHT22;34586;53.616;10.032;2023-01-09T06:47:14;7.60;99.90
10873;DHT22;34586;53.616;10.032;2023-01-09T06:49:40;7.60;99.90
10873;DHT22;34586;53.616;10.032;2023-01-09T06:52:05;7.60;99.90
10873;DHT22;34586;53.616;10.032;2023-01-09T06:54:33;7.60;99.90
10873;DHT22;34586;53.616;10.032;2023-01-09T06:56:59;7.60;99.90
10873;DHT22;34586;53.616;10.032;2023-01-09T06:59:25;7.60;99.90
10873;DHT22;34586;53.616;10.032;2023-01-09T07:01:50;7.60;99.90
10873;DHT22;34586;53.616;10.032;2023-01-09T07:04:16;7.60;99.90
10873;DHT22;34586;53.616;10.032;2023-01-09T07:06:42;7.70;99.90
10873;DHT22;34586;53.616;10.032;2023-01-09T07:09:08;7.60;99.90
10873;DHT22;34586;53.616;10.032;2023-01-09T07:11:38;7.60;99.90
10873;DHT22;34586;53.616;10.032;2023-01-09T07:14:03;7.50;99.90
10873;DHT22;34586;53.616;10.032;2023-01-09T07:16:29;7.50;99.90
10873;DHT22;34586;53.616;10.032;2023-01-09T07:18:55;7.50;99.90
10873;DHT22;34586;53.616;10.032;2023-01-09T07:21:21;7.50;99.90
10873;DHT22;34586;53.616;10.032;2023-01-09T07:23:46;7.50;99.90
10873;DHT22;34586;53.616;10.032;2023-01-09T07:26:12;7.60;99.90
10873;DHT22;34586;53.616;10.032;2023-01-09T07:28:37;7.60;99.90
10873;DHT22;34586;53.616;10.032;2023-01-09T07:31:03;7.60;99.90
10873;DHT22;34586;53.616;10.032;2023-01-09T07:33:32;7.60;99.90
10873;DHT22;34586;53.616;10.032;2023-01-09T07:35:57;7.70;99.90
10873;DHT22;34586;53.616;10.032;2023-01-09T07:38:23;7.60;99.90
10873;DHT22;34586;53.616;10.032;2023-01-09T07:40:49;7.60;99.90
10873;DHT22;34586;53.616;10.032;2023-01-09T07:43:14;7.60;99.90
10873;DHT22;34586;53.616;10.032;2023-01-09T07:45:40;7.60;99.90
10873;DHT22;34586;53.616;10.032;2023-01-09T07:48:06;7.60;99.90
10873;DHT22;34586;53.616;10.032;2023-01-09T07:50:31;7.60;99.90
10873;DHT22;34586;53.616;10.032;2023-01-09T07:52:57;7.80;99.90
10873;DHT22;34586;53.616;10.032;2023-01-09T07:55:22;7.60;99.90
10873;DHT22;34586;53.616;10.032;2023-01-09T07:57:49;7.60;99.90
10873;DHT22;34586;53.616;10.032;2023-01-09T08:00:16;7.60;99.90
10873;DHT22;34586;53.616;10.032;2023-01-09T08:02:42;7.70;99.90
10873;DHT22;34586;53.616;10.032;2023-01-09T08:05:07;7.70;99.90
10873;DHT22;34586;53.616;10.032;2023-01-09T08:07:37;7.70;99.90
10873;DHT22;34586;53.616;10.032;2023-01-09T08:10:03;7.60;99.90
10873;DHT22;34586;53.616;10.032;2023-01-09T08:12:29;7.60;99.90
10873;DHT22;34586;53.616;10.032;2023-01-09T08:14:54;7.60;99.90
10873;DHT22;34586;53.616;10.032;2023-01-09T08:17:20;7.60;99.90
10873;DHT22;34586;53.616;10.032;2023-01-09T08:19:45;7.60;99.90
10873;DHT22;34586;53.616;10.032;2023-01-09T08:22:11;7.50;99.90
10873;DHT22;34586;53.616;10.032;2023-01-09T08:24:37;7.50;99.90
10873;DHT22;34586;53.616;10.032;2023-01-09T08:27:02;7.50;99.90
10873;DHT22;34586;53.616;10.032;2023-01-09T08:29:28;7.60;99.90
10873;DHT22;34586;53.616;10.032;2023-01-09T08:31:54;7.50;99.90
10873;DHT22;34586;53.616;10.032;2023-01-09T08:34:20;7.40;99.90
10873;DHT22;34586;53.616;10.032;2023-01-09T08:36:46;7.40;99.90
10873;DHT22;34586;53.616;10.032;2023-01-09T08:39:12;7.40;99.90
10873;DHT22;34586;53.616;10.032;2023-01-09T08:41:37;7.40;99.90
10873;DHT22;34586;53.616;10.032;2023-01-09T08:44:21;7.30;99.90
10873;DHT22;34586;53.616;10.032;2023-01-09T08:47:05;7.40;99.90
10873;DHT22;34586;53.616;10.032;2023-01-09T08:49:36;7.40;99.90
10873;DHT22;34586;53.616;10.032;2023-01-09T08:52:03;7.40;99.90
10873;DHT22;34586;53.616;10.032;2023-01-09T08:54:29;7.30;99.90
10873;DHT22;34586;53.616;10.032;2023-01-09T08:56:55;7.30;99.90
10873;DHT22;34586;53.616;10.032;2023-01-09T08:59:21;7.20;99.90
10873;DHT22;34586;53.616;10.032;2023-01-09T09:01:46;7.20;99.90
10873;DHT22;34586;53.616;10.032;2023-01-09T09:04:12;7.10;99.90
10873;DHT22;34586;53.616;10.032;2023-01-09T09:06:37;7.20;99.90
10873;DHT22;34586;53.616;10.032;2023-01-09T09:09:03;7.10;99.90
10873;DHT22;34586;53.616;10.032;2023-01-09T09:11:31;7.20;99.90
10873;DHT22;34586;53.616;10.032;2023-01-09T09:13:57;7.20;99.90
10873;DHT22;34586;53.616;10.032;2023-01-09T09:16:26;7.10;99.90
10873;DHT22;34586;53.616;10.032;2023-01-09T09:18:52;7.10;99.90
10873;DHT22;34586;53.616;10.032;2023-01-09T09:21:18;7.10;99.90
10873;DHT22;34586;53.616;10.032;2023-01-09T09:23:45;7.10;99.90
10873;DHT22;34586;53.616;10.032;2023-01-09T09:26:10;7.20;99.90
10873;DHT22;34586;53.616;10.032;2023-01-09T09:28:36;7.20;99.90
10873;DHT22;34586;53.616;10.032;2023-01-09T09:31:05;7.20;99.90
10873;DHT22;34586;53.616;10.032;2023-01-09T09:33:31;7.40;99.90
10873;DHT22;34586;53.616;10.032;2023-01-09T09:35:58;7.30;99.90
10873;DHT22;34586;53.616;10.032;2023-01-09T09:38:23;7.30;99.90
10873;DHT22;34586;53.616;10.032;2023-01-09T09:48:56;7.60;99.90
10873;DHT22;34586;53.616;10.032;2023-01-09T09:51:39;7.60;99.90
10873;DHT22;34586;53.616;10.032;2023-01-09T09:54:24;7.70;99.90
10873;DHT22;34586;53.616;10.032;2023-01-09T09:56:57;7.70;99.90
10873;DHT22;34586;53.616;10.032;2023-01-09T09:59:27;7.70;99.90
10873;DHT22;34586;53.616;10.032;2023-01-09T10:01:58;7.70;99.90
10873;DHT22;34586;53.616;10.032;2023-01-09T10:04:26;7.80;99.90
10873;DHT22;34586;53.616;10.032;2023-01-09T10:07:03;7.80;99.90
10873;DHT22;34586;53.616;10.032;2023-01-09T10:09:51;7.70;99.90
10873;DHT22;34586;53.616;10.032;2023-01-09T10:15:37;7.70;99.90
10873;DHT22;34586;53.616;10.032;2023-01-09T10:17:54;7.70;99.90
10873;DHT22;34586;53.616;10.032;2023-01-09T10:20:32;7.80;99.90
10873;DHT22;34586;53.616;10.032;2023-01-09T10:32:15;7.80;99.90
10873;DHT22;34586;53.616;10.032;2023-01-09T10:42:22;7.70;99.90
10873;DHT22;34586;53.616;10.032;2023-01-09T10:44:53;7.70;99.90
10873;DHT22;34586;53.616;10.032;2023-01-09T10:47:32;7.70;99.90
10873;DHT22;34586;53.616;10.032;2023-01-09T10:50:00;7.70;99.90
10873;DHT22;34586;53.616;10.032;2023-01-09T10:52:34;7.70;99.90
10873;DHT22;34586;53.616;10.032;2023-01-09T10:55:16;7.70;99.90
10873;DHT22;34586;53.616;10.032;2023-01-09T10:57:46;7.70;99.90
10873;DHT22;34586;53.616;10.032;2023-01-09T11:00:22;7.70;99.90
10873;DHT22;34586;53.616;10.032;2023-01-09T11:02:49;7.80;99.90
10873;DHT22;34586;53.616;10.032;2023-01-09T11:05:19;7.70;99.90
10873;DHT22;34586;53.616;10.032;2023-01-09T11:07:54;7.60;99.90
10873;DHT22;34586;53.616;10.032;2023-01-09T11:10:21;7.80;99.90
10873;DHT22;34586;53.616;10.032;2023-01-09T11:12:47;7.80;99.90
10873;DHT22;34586;53.616;10.032;2023-01-09T11:17:42;7.80;99.90
10873;DHT22;34586;53.616;10.032;2023-01-09T11:22:46;7.70;82.40
10873;DHT22;34586;53.616;10.032;2023-01-09T11:25:14;7.80;81.90
10873;DHT22;34586;53.616;10.032;2023-01-09T11:27:40;7.70;98.60
10873;DHT22;34586;53.616;10.032;2023-01-09T11:30:19;7.80;99.90
10873;DHT22;34586;53.616;10.032;2023-01-09T11:32:46;7.80;99.90
10873;DHT22;34586;53.616;10.032;2023-01-09T11:35:31;7.90;99.70
10873;DHT22;34586;53.616;10.032;2023-01-09T11:38:03;7.90;84.60
10873;DHT22;34586;53.616;10.032;2023-01-09T11:40:35;7.90;50.60
10873;DHT22;34586;53.616;10.032;2023-01-09T11:43:23;8.00;78.90
10873;DHT22;34586;53.616;10.032;2023-01-09T11:45:55;8.00;95.60
10873;DHT22;34586;53.616;10.032;2023-01-09T11:48:37;7.90;72.60
10873;DHT22;34586;53.616;10.032;2023-01-09T11:51:19;7.90;81.00
10873;DHT22;34586;53.616;10.032;2023-01-09T11:56:21;7.80;99.90
10873;DHT22;34586;53.616;10.032;2023-01-09T11:58:47;7.80;99.90
10873;DHT22;34586;53.616;10.032;2023-01-09T12:01:32;7.90;99.90
10873;DHT22;34586;53.616;10.032;2023-01-09T12:07:01;8.10;99.90
10873;DHT22;34586;53.616;10.032;2023-01-09T12:18:03;8.10;99.90
10873;DHT22;34586;53.616;10.032;2023-01-09T12:20:52;8.20;99.90
10873;DHT22;34586;53.616;10.032;2023-01-09T12:26:22;8.10;99.90
10873;DHT22;34586;53.616;10.032;2023-01-09T12:28:55;8.10;99.90
10873;DHT22;34586;53.616;10.032;2023-01-09T12:36:50;8.20;99.90
10873;DHT22;34586;53.616;10.032;2023-01-09T12:48:00;8.30;99.90
10873;DHT22;34586;53.616;10.032;2023-01-09T12:50:44;8.30;99.90
10873;DHT22;34586;53.616;10.032;2023-01-09T12:53:27;8.30;99.90
10873;DHT22;34586;53.616;10.032;2023-01-09T12:55:59;8.30;99.90
10873;DHT22;34586;53.616;10.032;2023-01-09T13:01:47;8.60;99.90
10873;DHT22;34586;53.616;10.032;2023-01-09T13:04:43;8.50;99.90
10873;DHT22;34586;53.616;10.032;2023-01-09T13:07:17;8.40;99.90
10873;DHT22;34586;53.616;10.032;2023-01-09T13:10:13;8.40;99.90
10873;DHT22;34586;53.616;10.032;2023-01-09T13:12:43;8.40;99.90
10873;DHT22;34586;53.616;10.032;2023-01-09T13:15:24;8.40;99.90
10873;DHT22;34586;53.616;10.032;2023-01-09T13:17:55;8.50;99.90
10873;DHT22;34586;53.616;10.032;2023-01-09T13:20:41;8.60;99.90
10873;DHT22;34586;53.616;10.032;2023-01-09T13:23:22;8.70;99.90
10873;DHT22;34586;53.616;10.032;2023-01-09T13:25:54;8.70;88.00
10873;DHT22;34586;53.616;10.032;2023-01-09T13:28:29;8.80;98.40
10873;DHT22;34586;53.616;10.032;2023-01-09T13:33:53;8.90;99.90
10873;DHT22;34586;53.616;10.032;2023-01-09T13:36:26;8.80;99.90
10873;DHT22;34586;53.616;10.032;2023-01-09T13:38:54;8.90;99.90
10873;DHT22;34586;53.616;10.032;2023-01-09T13:41:20;8.80;99.90
10873;DHT22;34586;53.616;10.032;2023-01-09T13:46:49;8.60;99.90
10873;DHT22;34586;53.616;10.032;2023-01-09T13:59:45;8.50;99.90
10873;DHT22;34586;53.616;10.032;2023-01-09T14:05:08;8.40;99.90
10873;DHT22;34586;53.616;10.032;2023-01-09T14:07:45;8.30;99.90
10873;DHT22;34586;53.616;10.032;2023-01-09T14:10:46;8.30;99.90
10873;DHT22;34586;53.616;10.032;2023-01-09T14:13:20;8.30;99.90
10873;DHT22;34586;53.616;10.032;2023-01-09T14:15:47;8.30;99.90
10873;DHT22;34586;53.616;10.032;2023-01-09T14:18:27;8.30;99.90
10873;DHT22;34586;53.616;10.032;2023-01-09T14:20:57;8.20;99.90
10873;DHT22;34586;53.616;10.032;2023-01-09T14:23:32;8.30;99.90
10873;DHT22;34586;53.616;10.032;2023-01-09T14:25:59;8.30;99.90
10873;DHT22;34586;53.616;10.032;2023-01-09T14:28:30;8.50;99.90
10873;DHT22;34586;53.616;10.032;2023-01-09T14:38:46;8.20;99.90
10873;DHT22;34586;53.616;10.032;2023-01-09T14:41:35;8.20;99.90
10873;DHT22;34586;53.616;10.032;2023-01-09T14:46:54;8.20;99.90
10873;DHT22;34586;53.616;10.032;2023-01-09T14:49:38;8.20;99.90
10873;DHT22;34586;53.616;10.032;2023-01-09T14:52:26;8.20;99.90
10873;DHT22;34586;53.616;10.032;2023-01-09T14:54:57;8.20;99.90
10873;DHT22;34586;53.616;10.032;2023-01-09T14:57:33;8.30;99.90
10873;DHT22;34586;53.616;10.032;2023-01-09T15:00:13;8.10;99.90
10873;DHT22;34586;53.616;10.032;2023-01-09T15:02:42;8.20;99.90
10873;DHT22;34586;53.616;10.032;2023-01-09T15:05:22;8.20;99.90
10873;DHT22;34586;53.616;10.032;2023-01-09T15:07:59;8.00;99.90
10873;DHT22;34586;53.616;10.032;2023-01-09T15:10:29;8.00;99.90
10873;DHT22;34586;53.616;10.032;2023-01-09T15:12:57;8.10;99.90
10873;DHT22;34586;53.616;10.032;2023-01-09T15:15:24;8.00;99.90
10873;DHT22;34586;53.616;10.032;2023-01-09T15:18:00;8.00;99.90
10873;DHT22;34586;53.616;10.032;2023-01-09T15:20:28;8.10;99.90
10873;DHT22;34586;53.616;10.032;2023-01-09T15:22:55;7.90;99.90
10873;DHT22;34586;53.616;10.032;2023-01-09T15:25:29;7.90;99.90
10873;DHT22;34586;53.616;10.032;2023-01-09T15:27:59;7.90;99.90
10873;DHT22;34586;53.616;10.032;2023-01-09T15:30:31;7.90;99.90
10873;DHT22;34586;53.616;10.032;2023-01-09T15:33:07;7.90;99.90
10873;DHT22;34586;53.616;10.032;2023-01-09T15:35:39;7.90;99.90
10873;DHT22;34586;53.616;10.032;2023-01-09T15:38:05;7.90;99.90
10873;DHT22;34586;53.616;10.032;2023-01-09T15:40:33;7.90;99.90
10873;DHT22;34586;53.616;10.032;2023-01-09T15:42:59;7.90;99.90
10873;DHT22;34586;53.616;10.032;2023-01-09T15:45:51;7.90;99.90
10873;DHT22;34586;53.616;10.032;2023-01-09T15:48:31;7.90;99.90
10873;DHT22;34586;53.616;10.032;2023-01-09T15:51:04;7.90;99.90
10873;DHT22;34586;53.616;10.032;2023-01-09T15:53:31;7.90;99.90
10873;DHT22;34586;53.616;10.032;2023-01-09T15:56:21;7.90;99.90
10873;DHT22;34586;53.616;10.032;2023-01-09T15:58:53;7.90;99.90
10873;DHT22;34586;53.616;10.032;2023-01-09T16:01:24;7.90;99.90
10873;DHT22;34586;53.616;10.032;2023-01-09T16:03:53;7.90;99.90
10873;DHT22;34586;53.616;10.032;2023-01-09T16:06:26;7.80;99.90
10873;DHT22;34586;53.616;10.032;2023-01-09T16:08:56;7.90;99.90
10873;DHT22;34586;53.616;10.032;2023-01-09T16:11:25;7.90;99.90
10873;DHT22;34586;53.616;10.032;2023-01-09T16:13:52;7.90;99.90
10873;DHT22;34586;53.616;10.032;2023-01-09T16:16:32;7.80;99.90
10873;DHT22;34586;53.616;10.032;2023-01-09T16:18:58;7.80;99.90
10873;DHT22;34586;53.616;10.032;2023-01-09T16:21:31;7.90;99.90
10873;DHT22;34586;53.616;10.032;2023-01-09T16:26:38;7.90;99.90
10873;DHT22;34586;53.616;10.032;2023-01-09T16:29:44;7.90;99.90
10873;DHT22;34586;53.616;10.032;2023-01-09T16:32:17;7.80;99.90
10873;DHT22;34586;53.616;10.032;2023-01-09T16:34:44;7.80;99.90
10873;DHT22;34586;53.616;10.032;2023-01-09T16:37:13;7.80;99.90
10873;DHT22;34586;53.616;10.032;2023-01-09T16:39:38;7.80;99.90
10873;DHT22;34586;53.616;10.032;2023-01-09T16:42:08;7.90;99.90
10873;DHT22;34586;53.616;10.032;2023-01-09T16:44:51;7.80;99.90
10873;DHT22;34586;53.616;10.032;2023-01-09T16:47:17;7.80;99.90
10873;DHT22;34586;53.616;10.032;2023-01-09T16:49:43;7.80;99.90
10873;DHT22;34586;53.616;10.032;2023-01-09T16:52:15;7.80;99.90
10873;DHT22;34586;53.616;10.032;2023-01-09T16:54:42;7.70;99.90
10873;DHT22;34586;53.616;10.032;2023-01-09T16:57:10;7.80;99.90
10873;DHT22;34586;53.616;10.032;2023-01-09T16:59:37;7.80;99.90
10873;DHT22;34586;53.616;10.032;2023-01-09T17:02:16;7.80;99.90
10873;DHT22;34586;53.616;10.032;2023-01-09T17:04:42;7.80;99.90
10873;DHT22;34586;53.616;10.032;2023-01-09T17:07:12;7.70;99.90
10873;DHT22;34586;53.616;10.032;2023-01-09T17:09:38;7.70;99.90
10873;DHT22;34586;53.616;10.032;2023-01-09T17:12:04;7.70;99.90
10873;DHT22;34586;53.616;10.032;2023-01-09T17:14:29;7.70;99.90
10873;DHT22;34586;53.616;10.032;2023-01-09T17:16:55;7.70;99.90
10873;DHT22;34586;53.616;10.032;2023-01-09T17:19:21;7.70;99.90
10873;DHT22;34586;53.616;10.032;2023-01-09T17:21:47;7.80;99.90
10873;DHT22;34586;53.616;10.032;2023-01-09T17:24:13;7.80;99.90
10873;DHT22;34586;53.616;10.032;2023-01-09T17:26:57;7.90;99.90
10873;DHT22;34586;53.616;10.032;2023-01-09T17:29:42;7.80;99.90
10873;DHT22;34586;53.616;10.032;2023-01-09T17:32:15;7.80;99.90
10873;DHT22;34586;53.616;10.032;2023-01-09T17:34:41;7.80;99.90
10873;DHT22;34586;53.616;10.032;2023-01-09T17:37:14;7.70;99.90
10873;DHT22;34586;53.616;10.032;2023-01-09T17:39:40;7.80;99.90
10873;DHT22;34586;53.616;10.032;2023-01-09T17:42:06;7.60;99.90
10873;DHT22;34586;53.616;10.032;2023-01-09T17:44:31;7.80;99.90
10873;DHT22;34586;53.616;10.032;2023-01-09T17:46:57;7.80;99.90
10873;DHT22;34586;53.616;10.032;2023-01-09T17:49:23;7.80;99.90
10873;DHT22;34586;53.616;10.032;2023-01-09T17:51:49;7.70;99.90
10873;DHT22;34586;53.616;10.032;2023-01-09T17:54:14;7.70;99.90
10873;DHT22;34586;53.616;10.032;2023-01-09T17:56:48;7.80;99.90